Time;durP1;ratioP1;P1;durP2;ratioP2;P2;SDS_P1;SDS_P2;PMS_P1;PMS_P2;Temp;Humidity;BMP_temperature;BMP_pressure;BME280_temperature;BME280_humidity;BME280_pressure;Samples;Min_cycle;Max_cycle;Signal;HPM_P1;HPM_P2
2022/01/13 00:02:12;;;;;;;;;;;9.50;99.90;;;;;;4975388;28;19956;-78
2022/01/13 00:04:37;;;;;;;;;;;9.50;99.90;;;;;;4974893;28;19918;-79
2022/01/13 00:07:03;;;;;;;;;;;9.40;99.90;;;;;;4974880;28;19914;-78
2022/01/13 00:09:29;;;;;;;;;;;9.60;99.90;;;;;;4974860;28;19964;-79
2022/01/13 00:11:56;;;;;;;;;;;9.60;99.90;;;;;;4974824;28;19965;-78
2022/01/13 00:19:45;;;;;;;;;;;9.50;99.90;;;;;;4975061;28;19910;-78
2022/01/13 00:22:38;;;;;;;;;;;9.50;99.90;;;;;;4974871;28;19910;-78
2022/01/13 00:25:04;;;;;;;;;;;9.50;99.90;;;;;;4974935;28;19965;-78
2022/01/13 00:27:30;;;;;;;;;;;9.50;99.90;;;;;;4959814;28;19914;-78
2022/01/13 00:29:59;;;;;;;;;;;9.40;99.90;;;;;;4978691;28;19910;-78
2022/01/13 00:32:28;;;;;;;;;;;9.50;99.90;;;;;;4978650;28;19910;-78
2022/01/13 00:34:54;;;;;;;;;;;9.40;99.90;;;;;;4978881;28;19914;-78
2022/01/13 00:37:19;;;;;;;;;;;9.40;99.90;;;;;;4961193;28;19997;-78
2022/01/13 00:39:45;;;;;;;;;;;9.40;99.90;;;;;;4978676;28;19910;-78
2022/01/13 00:42:11;;;;;;;;;;;9.40;99.90;;;;;;4978527;28;19984;-78
2022/01/13 00:44:38;;;;;;;;;;;9.30;99.90;;;;;;4978475;28;20349;-78
2022/01/13 00:47:07;;;;;;;;;;;9.40;99.90;;;;;;4977020;28;19972;-78
2022/01/13 00:49:32;;;;;;;;;;;9.30;99.90;;;;;;4960902;28;19998;-78
2022/01/13 00:51:58;;;;;;;;;;;9.30;99.90;;;;;;4978222;28;19949;-78
2022/01/13 00:54:24;;;;;;;;;;;9.30;99.90;;;;;;4978186;28;19933;-79
2022/01/13 00:56:49;;;;;;;;;;;9.30;99.90;;;;;;4978183;28;20365;-78
2022/01/13 00:59:15;;;;;;;;;;;9.20;99.90;;;;;;4978351;28;19910;-79
2022/01/13 01:01:46;;;;;;;;;;;9.20;99.90;;;;;;4978124;28;20389;-79
2022/01/13 01:04:12;;;;;;;;;;;9.30;99.90;;;;;;4960465;28;19910;-78
2022/01/13 01:06:38;;;;;;;;;;;9.20;99.90;;;;;;4960699;28;19990;-78
2022/01/13 01:09:04;;;;;;;;;;;9.20;99.90;;;;;;4978174;28;20381;-78
2022/01/13 01:11:29;;;;;;;;;;;9.30;99.90;;;;;;4978246;28;20286;-78
2022/01/13 01:13:56;;;;;;;;;;;9.30;99.90;;;;;;4977915;28;19917;-78
2022/01/13 01:16:22;;;;;;;;;;;9.30;99.90;;;;;;4977905;28;20342;-78
2022/01/13 01:18:59;;;;;;;;;;;9.40;99.90;;;;;;4978313;28;19911;-78
2022/01/13 01:24:11;;;;;;;;;;;9.20;99.90;;;;;;4978008;28;19910;-79
2022/01/13 01:31:40;;;;;;;;;;;9.10;99.90;;;;;;4977607;28;20340;-78
2022/01/13 01:36:34;;;;;;;;;;;9.20;99.90;;;;;;4977830;28;19921;-78
2022/01/13 01:39:00;;;;;;;;;;;9.20;99.90;;;;;;4976991;28;19910;-78
2022/01/13 01:41:26;;;;;;;;;;;9.20;99.90;;;;;;4977625;28;19918;-78
2022/01/13 01:43:54;;;;;;;;;;;9.20;99.90;;;;;;4977374;28;19917;-78
2022/01/13 01:46:19;;;;;;;;;;;9.10;99.90;;;;;;4977317;28;19910;-78
2022/01/13 01:48:45;;;;;;;;;;;9.00;99.90;;;;;;4977194;28;19964;-79
2022/01/13 01:51:11;;;;;;;;;;;9.00;99.90;;;;;;4959858;28;19910;-79
2022/01/13 01:53:36;;;;;;;;;;;9.00;99.90;;;;;;4959514;28;20362;-79
2022/01/13 01:56:02;;;;;;;;;;;8.90;99.90;;;;;;4977144;28;19918;-78
2022/01/13 01:58:29;;;;;;;;;;;8.90;99.90;;;;;;4977097;28;19910;-78
2022/01/13 02:00:55;;;;;;;;;;;9.00;99.90;;;;;;4975802;28;19914;-78
2022/01/13 02:03:22;;;;;;;;;;;8.90;99.90;;;;;;4977061;28;19917;-79
2022/01/13 02:05:48;;;;;;;;;;;8.90;99.90;;;;;;4976985;28;19917;-78
2022/01/13 02:08:13;;;;;;;;;;;8.90;99.90;;;;;;4976883;28;19918;-78
2022/01/13 02:10:39;;;;;;;;;;;8.80;99.90;;;;;;4976924;28;19910;-78
2022/01/13 02:13:09;;;;;;;;;;;8.80;99.90;;;;;;4976914;28;19917;-78
2022/01/13 02:15:46;;;;;;;;;;;8.80;99.90;;;;;;4976795;28;19914;-78
2022/01/13 02:18:12;;;;;;;;;;;8.80;99.90;;;;;;4977254;28;19910;-79
2022/01/13 02:20:45;;;;;;;;;;;8.70;99.90;;;;;;4976720;28;20282;-78
2022/01/13 02:23:11;;;;;;;;;;;8.50;99.90;;;;;;4976714;28;20362;-78
2022/01/13 02:25:36;;;;;;;;;;;8.50;99.90;;;;;;4976656;28;19910;-78
2022/01/13 02:28:02;;;;;;;;;;;8.40;99.90;;;;;;4976545;28;19921;-78
2022/01/13 02:30:27;;;;;;;;;;;8.40;99.90;;;;;;4976519;28;19942;-78
2022/01/13 02:32:53;;;;;;;;;;;8.30;99.90;;;;;;4975222;28;19910;-78
2022/01/13 02:35:18;;;;;;;;;;;8.10;99.90;;;;;;4976541;28;20389;-79
2022/01/13 02:37:44;;;;;;;;;;;8.20;99.90;;;;;;4976501;28;19917;-78
2022/01/13 02:40:10;;;;;;;;;;;8.10;99.90;;;;;;4976384;28;19993;-78
2022/01/13 02:42:35;;;;;;;;;;;8.10;99.90;;;;;;4976287;28;20259;-78
2022/01/13 02:45:03;;;;;;;;;;;8.10;99.90;;;;;;4976286;28;19910;-78
2022/01/13 02:50:02;;;;;;;;;;;8.00;99.90;;;;;;4974994;28;19910;-79
2022/01/13 02:52:28;;;;;;;;;;;7.80;99.90;;;;;;4976349;28;20377;-78
2022/01/13 02:54:53;;;;;;;;;;;7.70;99.90;;;;;;4975953;28;19926;-79
2022/01/13 02:57:19;;;;;;;;;;;7.70;99.90;;;;;;4976001;28;19917;-78
2022/01/13 02:59:44;;;;;;;;;;;7.70;99.90;;;;;;4976010;28;19911;-78
2022/01/13 03:02:10;;;;;;;;;;;7.70;99.90;;;;;;4975892;28;19916;-78
2022/01/13 03:04:35;;;;;;;;;;;7.70;99.90;;;;;;4976307;28;19910;-78
2022/01/13 03:07:01;;;;;;;;;;;7.70;99.90;;;;;;4958389;28;19910;-78
2022/01/13 03:09:27;;;;;;;;;;;7.60;99.90;;;;;;4975765;28;20363;-78
2022/01/13 03:11:52;;;;;;;;;;;7.40;99.90;;;;;;4975717;28;20282;-78
2022/01/13 03:14:18;;;;;;;;;;;7.40;99.90;;;;;;4976049;28;19965;-78
2022/01/13 03:16:46;;;;;;;;;;;7.20;99.90;;;;;;4976035;28;19921;-78
2022/01/13 03:19:12;;;;;;;;;;;7.20;99.90;;;;;;4975708;28;19933;-78
2022/01/13 03:21:38;;;;;;;;;;;7.20;99.90;;;;;;4975587;28;20366;-78
2022/01/13 03:24:08;;;;;;;;;;;7.10;99.90;;;;;;4975519;28;20000;-78
2022/01/13 03:26:33;;;;;;;;;;;7.10;99.90;;;;;;4958076;28;19910;-78
2022/01/13 03:29:22;;;;;;;;;;;7.20;99.90;;;;;;4975440;28;19920;-78
2022/01/13 03:31:45;;;;;;;;;;;7.20;99.90;;;;;;4974737;28;19977;-78
2022/01/13 03:34:13;;;;;;;;;;;7.10;99.90;;;;;;4975519;28;20370;-78
2022/01/13 03:36:39;;;;;;;;;;;7.00;99.90;;;;;;4975484;28;19914;-79
2022/01/13 03:39:05;;;;;;;;;;;6.80;99.90;;;;;;4975399;28;19917;-78
2022/01/13 03:41:31;;;;;;;;;;;6.80;99.90;;;;;;4975165;28;20449;-78
2022/01/13 03:43:59;;;;;;;;;;;6.70;99.90;;;;;;4975396;28;19993;-78
2022/01/13 03:46:25;;;;;;;;;;;6.80;99.90;;;;;;4975423;28;19917;-78
2022/01/13 03:48:50;;;;;;;;;;;6.80;99.90;;;;;;4975067;28;19952;-78
2022/01/13 03:51:16;;;;;;;;;;;6.90;99.90;;;;;;4975109;28;20290;-78
2022/01/13 03:53:53;;;;;;;;;;;6.90;99.90;;;;;;4974784;28;19926;-78
2022/01/13 03:56:38;;;;;;;;;;;7.00;99.90;;;;;;4975265;28;19964;-78
2022/01/13 03:59:15;;;;;;;;;;;7.20;99.90;;;;;;4975218;28;19910;-78
2022/01/13 04:01:53;;;;;;;;;;;7.30;99.90;;;;;;4974801;28;20325;-78
2022/01/13 04:04:19;;;;;;;;;;;7.40;99.90;;;;;;4974961;28;19949;-79
2022/01/13 04:06:45;;;;;;;;;;;7.40;99.90;;;;;;4975112;28;19925;-78
2022/01/13 04:09:23;;;;;;;;;;;7.40;99.90;;;;;;4974800;28;19918;-78
2022/01/13 04:11:50;;;;;;;;;;;7.50;99.90;;;;;;4975113;28;19910;-78
2022/01/13 04:14:19;;;;;;;;;;;7.50;99.90;;;;;;4974890;28;19916;-79
2022/01/13 04:16:45;;;;;;;;;;;7.40;99.90;;;;;;4975073;28;19910;-79
2022/01/13 04:19:10;;;;;;;;;;;7.40;99.90;;;;;;4975354;28;19933;-78
2022/01/13 04:21:37;;;;;;;;;;;7.50;99.90;;;;;;4974879;28;19917;-78
2022/01/13 04:24:04;;;;;;;;;;;7.50;99.90;;;;;;4957370;28;20286;-79
2022/01/13 04:26:31;;;;;;;;;;;7.40;99.90;;;;;;4973411;28;19910;-78
2022/01/13 04:29:19;;;;;;;;;;;7.40;99.90;;;;;;4975111;28;19914;-78
2022/01/13 04:31:45;;;;;;;;;;;7.40;99.90;;;;;;4974791;28;20285;-78
2022/01/13 04:34:11;;;;;;;;;;;7.50;99.90;;;;;;4974683;28;19949;-78
2022/01/13 04:36:38;;;;;;;;;;;7.40;99.90;;;;;;4974653;28;19953;-78
2022/01/13 04:39:04;;;;;;;;;;;7.50;99.90;;;;;;4974842;28;19914;-78
2022/01/13 04:41:40;;;;;;;;;;;7.60;99.90;;;;;;4974599;28;20369;-79
2022/01/13 04:44:07;;;;;;;;;;;7.50;99.90;;;;;;4974666;28;19910;-79
2022/01/13 04:46:32;;;;;;;;;;;7.40;99.90;;;;;;4974534;28;19910;-79
2022/01/13 04:48:59;;;;;;;;;;;7.50;99.90;;;;;;4974490;28;19921;-78
2022/01/13 04:51:25;;;;;;;;;;;7.60;99.90;;;;;;4973209;28;19957;-78
2022/01/13 04:53:51;;;;;;;;;;;7.60;99.90;;;;;;4974497;28;19961;-78
2022/01/13 04:56:27;;;;;;;;;;;7.60;99.90;;;;;;4974543;28;20425;-78
2022/01/13 04:58:53;;;;;;;;;;;7.60;99.90;;;;;;4974969;28;20290;-78
2022/01/13 05:01:19;;;;;;;;;;;7.40;99.90;;;;;;4974599;28;19921;-78
2022/01/13 05:03:44;;;;;;;;;;;7.40;99.90;;;;;;4974701;28;19950;-78
2022/01/13 05:06:10;;;;;;;;;;;7.30;99.90;;;;;;4974466;28;19910;-78
2022/01/13 05:08:35;;;;;;;;;;;7.30;99.90;;;;;;4974412;28;20005;-78
2022/01/13 05:11:01;;;;;;;;;;;7.30;99.90;;;;;;4974289;28;19910;-78
2022/01/13 05:13:27;;;;;;;;;;;7.40;99.90;;;;;;4975532;28;19910;-78
2022/01/13 05:15:55;;;;;;;;;;;7.30;99.90;;;;;;4978258;28;20366;-79
2022/01/13 05:20:48;;;;;;;;;;;7.30;99.90;;;;;;4978059;28;19910;-78
2022/01/13 05:23:14;;;;;;;;;;;7.20;99.90;;;;;;4960285;28;20329;-78
2022/01/13 05:25:40;;;;;;;;;;;7.20;99.90;;;;;;4977684;28;19945;-78
2022/01/13 05:28:06;;;;;;;;;;;7.10;99.90;;;;;;4977728;28;19941;-78
2022/01/13 05:30:32;;;;;;;;;;;7.20;99.90;;;;;;4977771;28;19910;-78
2022/01/13 05:32:57;;;;;;;;;;;7.20;99.90;;;;;;4976345;28;19916;-78
2022/01/13 05:35:24;;;;;;;;;;;7.10;99.90;;;;;;4977544;28;20441;-78
2022/01/13 05:37:49;;;;;;;;;;;7.10;99.90;;;;;;4977714;28;19938;-78
2022/01/13 05:40:15;;;;;;;;;;;7.10;99.90;;;;;;4977527;28;19914;-79
2022/01/13 05:42:41;;;;;;;;;;;7.10;99.90;;;;;;4977531;28;19918;-79
2022/01/13 05:45:14;;;;;;;;;;;7.10;99.90;;;;;;4977383;28;19953;-78
2022/01/13 05:47:40;;;;;;;;;;;7.00;99.90;;;;;;4977488;28;19914;-78
2022/01/13 05:50:06;;;;;;;;;;;7.10;99.90;;;;;;4959845;28;20281;-78
2022/01/13 05:52:32;;;;;;;;;;;7.10;99.90;;;;;;4977283;28;19933;-78
2022/01/13 05:54:57;;;;;;;;;;;7.10;99.90;;;;;;4976971;28;20383;-78
2022/01/13 05:57:23;;;;;;;;;;;7.10;99.90;;;;;;4977495;28;19910;-78
2022/01/13 05:59:49;;;;;;;;;;;7.10;99.90;;;;;;4977145;28;19914;-78
2022/01/13 06:02:14;;;;;;;;;;;7.10;99.90;;;;;;4959715;28;19914;-79
2022/01/13 06:04:40;;;;;;;;;;;7.20;99.90;;;;;;4977035;28;20289;-78
2022/01/13 06:07:05;;;;;;;;;;;7.30;99.90;;;;;;4977045;28;19956;-78
2022/01/13 06:09:31;;;;;;;;;;;7.20;99.90;;;;;;4977078;28;20353;-78
2022/01/13 06:12:02;;;;;;;;;;;7.20;99.90;;;;;;4976882;28;19910;-79
2022/01/13 06:14:28;;;;;;;;;;;7.20;99.90;;;;;;4976892;28;19917;-78
2022/01/13 06:16:54;;;;;;;;;;;7.10;99.90;;;;;;4976799;28;19911;-78
2022/01/13 06:19:19;;;;;;;;;;;7.10;99.90;;;;;;4959730;28;19925;-78
2022/01/13 06:21:45;;;;;;;;;;;7.20;99.90;;;;;;4976931;28;20001;-78
2022/01/13 06:24:10;;;;;;;;;;;7.20;99.90;;;;;;4976633;28;19917;-78
2022/01/13 06:26:36;;;;;;;;;;;7.30;99.90;;;;;;4976624;28;19969;-78
2022/01/13 06:29:02;;;;;;;;;;;7.20;99.90;;;;;;4976531;28;19914;-79
2022/01/13 06:31:28;;;;;;;;;;;7.10;99.90;;;;;;4976669;28;19910;-78
2022/01/13 06:33:53;;;;;;;;;;;7.10;99.90;;;;;;4976504;28;19965;-79
2022/01/13 06:36:19;;;;;;;;;;;7.10;99.90;;;;;;4959005;28;19978;-78
2022/01/13 06:38:48;;;;;;;;;;;7.10;99.90;;;;;;4976363;28;19914;-78
2022/01/13 06:41:17;;;;;;;;;;;7.00;99.90;;;;;;4976282;28;19941;-78
2022/01/13 06:43:43;;;;;;;;;;;7.10;99.90;;;;;;4975061;28;19957;-78
2022/01/13 06:46:11;;;;;;;;;;;7.10;99.90;;;;;;4976331;28;19950;-79
2022/01/13 06:48:36;;;;;;;;;;;7.10;99.90;;;;;;4976182;28;19969;-78
2022/01/13 06:51:02;;;;;;;;;;;7.10;99.90;;;;;;4976281;28;20357;-79
2022/01/13 06:53:27;;;;;;;;;;;7.10;99.90;;;;;;4958487;28;19961;-78
2022/01/13 06:55:53;;;;;;;;;;;7.20;99.90;;;;;;4976194;28;19921;-79
2022/01/13 06:58:18;;;;;;;;;;;7.20;99.90;;;;;;4975915;28;19918;-78
2022/01/13 07:00:44;;;;;;;;;;;7.10;99.90;;;;;;4976158;28;19968;-78
2022/01/13 07:03:10;;;;;;;;;;;7.10;99.90;;;;;;4976171;28;19917;-78
2022/01/13 07:05:36;;;;;;;;;;;7.10;99.90;;;;;;4976109;28;20045;-78
2022/01/13 07:08:02;;;;;;;;;;;7.10;99.90;;;;;;4975812;28;19914;-79
2022/01/13 07:10:28;;;;;;;;;;;7.10;99.90;;;;;;4975783;28;20365;-78
2022/01/13 07:12:53;;;;;;;;;;;7.10;99.90;;;;;;4975989;28;19989;-79
2022/01/13 07:15:19;;;;;;;;;;;7.10;99.90;;;;;;4976217;28;19914;-78
2022/01/13 07:17:46;;;;;;;;;;;7.20;99.90;;;;;;4975874;28;19913;-78
2022/01/13 07:20:11;;;;;;;;;;;7.20;99.90;;;;;;4975653;28;20404;-79
2022/01/13 07:22:38;;;;;;;;;;;7.20;99.90;;;;;;4958177;28;19949;-78
2022/01/13 07:25:05;;;;;;;;;;;7.20;99.90;;;;;;4975549;28;19914;-78
2022/01/13 07:27:30;;;;;;;;;;;7.10;99.90;;;;;;4975409;28;19914;-78
2022/01/13 07:29:56;;;;;;;;;;;7.10;99.90;;;;;;4975415;28;19933;-78
2022/01/13 07:32:21;;;;;;;;;;;7.20;99.90;;;;;;4975427;28;19910;-78
2022/01/13 07:34:47;;;;;;;;;;;7.20;99.90;;;;;;4975088;28;20008;-78
2022/01/13 07:37:13;;;;;;;;;;;7.10;99.90;;;;;;4974832;28;19970;-78
2022/01/13 07:39:38;;;;;;;;;;;7.10;99.90;;;;;;4975347;28;20381;-78
2022/01/13 07:42:04;;;;;;;;;;;7.20;99.90;;;;;;4973927;28;19997;-78
2022/01/13 07:44:30;;;;;;;;;;;7.10;99.90;;;;;;4975235;28;19910;-78
2022/01/13 07:46:58;;;;;;;;;;;7.10;99.90;;;;;;4975424;28;20005;-79
2022/01/13 07:49:24;;;;;;;;;;;7.10;99.90;;;;;;4957761;28;20279;-78
2022/01/13 07:51:49;;;;;;;;;;;7.00;99.90;;;;;;4975035;28;20333;-78
2022/01/13 07:54:15;;;;;;;;;;;7.10;99.90;;;;;;4975203;28;19987;-78
2022/01/13 07:56:40;;;;;;;;;;;7.00;99.90;;;;;;4975042;28;19910;-78
2022/01/13 07:59:06;;;;;;;;;;;7.00;99.90;;;;;;4975282;28;19937;-78
2022/01/13 08:01:31;;;;;;;;;;;7.10;99.90;;;;;;4975001;28;20377;-78
2022/01/13 08:03:57;;;;;;;;;;;7.10;99.90;;;;;;4974929;28;20001;-79
2022/01/13 08:06:23;;;;;;;;;;;7.00;99.90;;;;;;4974973;28;19914;-78
2022/01/13 08:08:48;;;;;;;;;;;6.90;99.90;;;;;;4974846;28;20001;-78
2022/01/13 08:11:16;;;;;;;;;;;6.80;99.90;;;;;;4974891;28;19981;-78
2022/01/13 08:13:42;;;;;;;;;;;6.70;99.90;;;;;;4975399;28;19910;-78
2022/01/13 08:16:09;;;;;;;;;;;6.80;99.90;;;;;;4974838;28;19911;-78
2022/01/13 08:21:20;;;;;;;;;;;6.80;99.90;;;;;;4974871;28;19973;-78
2022/01/13 08:23:45;;;;;;;;;;;7.00;99.90;;;;;;4974860;28;20370;-78
2022/01/13 08:26:11;;;;;;;;;;;7.00;99.90;;;;;;4974764;28;19917;-78
2022/01/13 08:28:37;;;;;;;;;;;6.90;99.90;;;;;;4974554;28;20448;-78
2022/01/13 08:31:06;;;;;;;;;;;7.00;99.90;;;;;;4974733;28;19937;-78
2022/01/13 08:33:32;;;;;;;;;;;7.00;99.90;;;;;;4974870;28;19937;-78
2022/01/13 08:35:58;;;;;;;;;;;7.00;99.90;;;;;;4957202;28;19914;-78
2022/01/13 08:38:24;;;;;;;;;;;7.30;99.90;;;;;;4974515;28;19914;-78
2022/01/13 08:40:53;;;;;;;;;;;7.60;99.90;;;;;;4974821;28;19910;-78
2022/01/13 08:43:19;;;;;;;;;;;7.90;99.90;;;;;;4957122;28;19921;-78
2022/01/13 08:45:45;;;;;;;;;;;8.50;99.90;;;;;;4957213;28;19910;-78
2022/01/13 08:48:11;;;;;;;;;;;8.80;99.90;;;;;;4974941;28;19968;-78
2022/01/13 08:50:37;;;;;;;;;;;9.00;99.90;;;;;;4978260;28;20425;-78
2022/01/13 08:53:03;;;;;;;;;;;8.90;99.90;;;;;;4960804;28;20329;-78
2022/01/13 08:55:29;;;;;;;;;;;8.70;99.90;;;;;;4977690;28;20378;-79
2022/01/13 08:57:55;;;;;;;;;;;8.60;99.90;;;;;;4978530;28;19914;-78
2022/01/13 09:00:20;;;;;;;;;;;8.40;99.90;;;;;;4978172;28;20465;-78
2022/01/13 09:02:46;;;;;;;;;;;8.20;99.90;;;;;;4978153;28;19910;-78
2022/01/13 09:05:13;;;;;;;;;;;8.20;99.90;;;;;;4978078;28;19981;-78
2022/01/13 09:07:39;;;;;;;;;;;8.00;99.90;;;;;;4978074;28;19914;-78
2022/01/13 09:10:05;;;;;;;;;;;7.90;99.90;;;;;;4978041;28;20453;-78
2022/01/13 09:12:30;;;;;;;;;;;8.00;99.90;;;;;;4977865;28;20370;-78
2022/01/13 09:15:02;;;;;;;;;;;8.10;99.90;;;;;;4978593;28;19914;-79
2022/01/13 09:17:28;;;;;;;;;;;8.20;99.90;;;;;;4978109;28;19918;-78
2022/01/13 09:19:54;;;;;;;;;;;8.20;99.90;;;;;;4977838;28;20361;-78
2022/01/13 09:22:20;;;;;;;;;;;8.60;99.90;;;;;;4977702;28;19910;-78
2022/01/13 09:24:45;;;;;;;;;;;9.40;99.90;;;;;;4977570;28;19914;-78
2022/01/13 09:27:11;;;;;;;;;;;10.00;99.90;;;;;;4977706;28;19916;-79
2022/01/13 09:29:36;;;;;;;;;;;10.10;99.90;;;;;;4977623;28;19965;-79
2022/01/13 09:32:03;;;;;;;;;;;9.90;99.90;;;;;;4960222;28;19910;-79
2022/01/13 09:34:29;;;;;;;;;;;9.90;99.90;;;;;;4977465;28;20364;-79
2022/01/13 09:36:54;;;;;;;;;;;9.50;99.90;;;;;;4977671;28;20030;-79
2022/01/13 09:39:20;;;;;;;;;;;9.40;99.90;;;;;;4977446;28;19991;-79
2022/01/13 09:41:46;;;;;;;;;;;9.30;99.90;;;;;;4977599;28;20421;-78
2022/01/13 09:44:15;;;;;;;;;;;9.20;99.90;;;;;;4959962;28;19910;-78
2022/01/13 09:46:41;;;;;;;;;;;9.10;99.90;;;;;;4977315;28;19910;-78
2022/01/13 09:49:08;;;;;;;;;;;9.20;99.90;;;;;;4977361;28;19921;-78
2022/01/13 09:51:34;;;;;;;;;;;9.40;99.90;;;;;;4976039;28;19910;-78
2022/01/13 09:54:00;;;;;;;;;;;9.50;99.90;;;;;;4977053;28;19922;-78
2022/01/13 09:56:26;;;;;;;;;;;9.50;99.90;;;;;;4977227;28;19910;-78
2022/01/13 09:58:51;;;;;;;;;;;9.30;99.90;;;;;;4975582;28;19910;-78
2022/01/13 10:01:18;;;;;;;;;;;9.50;99.90;;;;;;4977087;28;19910;-78
2022/01/13 10:03:44;;;;;;;;;;;9.50;99.90;;;;;;4977036;28;19917;-78
2022/01/13 10:06:17;;;;;;;;;;;9.80;99.90;;;;;;4977004;28;19910;-78
2022/01/13 10:08:47;;;;;;;;;;;10.30;99.90;;;;;;4977098;28;19921;-79
2022/01/13 10:11:26;;;;;;;;;;;10.90;99.90;;;;;;4976860;28;19910;-78
2022/01/13 10:14:04;;;;;;;;;;;10.70;99.90;;;;;;4977216;28;19989;-79
2022/01/13 10:16:30;;;;;;;;;;;11.70;99.90;;;;;;4976781;28;19918;-79
2022/01/13 10:18:55;;;;;;;;;;;12.90;99.90;;;;;;4976731;28;19910;-79
2022/01/13 10:21:21;;;;;;;;;;;12.40;99.90;;;;;;4991602;28;19918;-79
2022/01/13 10:23:59;;;;;;;;;;;11.40;99.90;;;;;;4976634;28;19917;-79
2022/01/13 10:26:24;;;;;;;;;;;12.80;99.90;;;;;;4976595;28;20271;-79
2022/01/13 10:28:51;;;;;;;;;;;12.90;99.90;;;;;;4976577;28;19964;-79
2022/01/13 10:31:17;;;;;;;;;;;12.90;99.90;;;;;;4976764;28;19914;-79
2022/01/13 10:33:42;;;;;;;;;;;14.20;99.90;;;;;;4976530;28;19957;-79
2022/01/13 10:36:10;;;;;;;;;;;15.00;99.60;;;;;;4976743;28;19918;-79
2022/01/13 10:38:55;;;;;;;;;;;16.20;97.10;;;;;;4975072;28;20266;-79
2022/01/13 10:42:01;;;;;;;;;;;16.60;95.40;;;;;;4975135;28;19917;-79
2022/01/13 10:44:22;;;;;;;;;;;17.00;91.90;;;;;;4976097;28;20363;-80
2022/01/13 10:46:58;;;;;;;;;;;17.00;91.10;;;;;;4976301;28;19949;-79
2022/01/13 10:49:34;;;;;;;;;;;17.10;90.30;;;;;;4976481;28;19914;-79
2022/01/13 10:52:16;;;;;;;;;;;17.80;88.10;;;;;;4976193;28;19910;-79
2022/01/13 10:54:42;;;;;;;;;;;18.00;83.60;;;;;;4975912;28;19951;-79
2022/01/13 10:57:17;;;;;;;;;;;18.50;82.80;;;;;;4976027;28;19914;-80
2022/01/13 10:59:43;;;;;;;;;;;19.10;78.10;;;;;;4976050;28;19954;-80
2022/01/13 11:02:10;;;;;;;;;;;19.20;77.20;;;;;;4958560;28;19961;-80
2022/01/13 11:04:36;;;;;;;;;;;19.70;75.10;;;;;;4958538;28;19916;-80
2022/01/13 11:07:12;;;;;;;;;;;20.00;73.40;;;;;;4975867;28;19993;-79
2022/01/13 11:09:42;;;;;;;;;;;20.70;70.20;;;;;;4976207;28;19914;-80
2022/01/13 11:12:09;;;;;;;;;;;20.70;67.10;;;;;;4975103;28;19910;-79
2022/01/13 11:14:41;;;;;;;;;;;20.90;66.60;;;;;;4976214;28;20348;-79
2022/01/13 11:17:08;;;;;;;;;;;20.80;66.50;;;;;;4976243;28;20001;-79
2022/01/13 11:19:34;;;;;;;;;;;21.60;64.70;;;;;;4975622;28;19946;-80
2022/01/13 11:21:59;;;;;;;;;;;21.80;63.10;;;;;;4975970;28;20263;-79
2022/01/13 11:24:25;;;;;;;;;;;22.80;61.30;;;;;;4975570;28;20382;-79
2022/01/13 11:26:51;;;;;;;;;;;22.70;58.90;;;;;;4975561;28;19910;-79
2022/01/13 11:29:17;;;;;;;;;;;23.60;57.70;;;;;;4975418;28;20288;-79
2022/01/13 11:31:43;;;;;;;;;;;22.80;58.10;;;;;;4975502;28;19954;-79
2022/01/13 11:34:09;;;;;;;;;;;22.90;58.60;;;;;;4975771;28;19945;-79
2022/01/13 11:36:35;;;;;;;;;;;22.40;57.50;;;;;;4990483;28;19976;-79
2022/01/13 11:39:02;;;;;;;;;;;23.00;57.80;;;;;;4975347;28;19914;-80
2022/01/13 11:41:28;;;;;;;;;;;22.70;57.90;;;;;;4973900;28;20293;-79
2022/01/13 11:44:10;;;;;;;;;;;23.90;55.70;;;;;;4975681;28;19910;-80
2022/01/13 11:46:43;;;;;;;;;;;23.50;55.70;;;;;;4975411;28;19910;-79
2022/01/13 11:49:16;;;;;;;;;;;22.70;56.10;;;;;;4957525;28;19918;-79
2022/01/13 11:52:13;;;;;;;;;;;22.80;55.60;;;;;;4957842;28;20366;-79
2022/01/13 11:54:39;;;;;;;;;;;23.60;55.00;;;;;;4975226;28;19929;-79
2022/01/13 11:57:11;;;;;;;;;;;25.00;53.70;;;;;;4975054;28;19918;-79
2022/01/13 11:59:37;;;;;;;;;;;22.50;54.00;;;;;;4957670;28;20081;-79
2022/01/13 12:02:35;;;;;;;;;;;23.70;54.00;;;;;;4975348;28;19985;-79
2022/01/13 12:05:00;;;;;;;;;;;23.10;55.10;;;;;;4921862;28;19910;-79
2022/01/13 12:07:37;;;;;;;;;;;24.20;53.10;;;;;;4974857;28;20115;-79
2022/01/13 12:10:06;;;;;;;;;;;24.00;53.30;;;;;;4974973;28;20297;-80
2022/01/13 12:12:33;;;;;;;;;;;24.50;53.30;;;;;;4974962;28;19942;-79
2022/01/13 12:15:14;;;;;;;;;;;25.00;51.90;;;;;;4975390;28;19914;-79
2022/01/13 12:17:43;;;;;;;;;;;24.20;53.10;;;;;;4974834;28;19969;-80
2022/01/13 12:20:56;;;;;;;;;;;24.90;52.50;;;;;;4975086;28;19914;-80
2022/01/13 12:23:40;;;;;;;;;;;26.00;51.00;;;;;;4977154;28;19914;-79
2022/01/13 12:26:24;;;;;;;;;;;26.50;49.40;;;;;;4979009;28;19937;-79
2022/01/13 12:29:10;;;;;;;;;;;26.80;49.10;;;;;;4978950;28;19945;-80
2022/01/13 12:31:47;;;;;;;;;;;25.80;50.40;;;;;;4976801;28;19910;-79
2022/01/13 12:34:28;;;;;;;;;;;26.40;48.90;;;;;;4979155;28;19914;-79
2022/01/13 12:36:54;;;;;;;;;;;24.10;50.00;;;;;;4978593;28;19910;-79
2022/01/13 12:39:20;;;;;;;;;;;23.80;52.70;;;;;;4978541;28;20453;-79
2022/01/13 12:41:58;;;;;;;;;;;22.30;53.00;;;;;;4978599;28;20374;-79
2022/01/13 12:45:27;;;;;;;;;;;22.50;55.70;;;;;;4978776;28;19917;-79
2022/01/13 12:47:10;;;;;;;;;;;22.20;55.40;;;;;;4978273;28;19961;-80
2022/01/13 12:49:36;;;;;;;;;;;23.50;55.10;;;;;;4978454;28;19996;-80
2022/01/13 12:52:03;;;;;;;;;;;25.20;51.60;;;;;;4993189;28;19914;-79
2022/01/13 12:54:28;;;;;;;;;;;25.50;50.60;;;;;;4978133;28;19922;-80
2022/01/13 12:56:54;;;;;;;;;;;26.00;50.00;;;;;;4978323;28;20382;-80
2022/01/13 12:59:21;;;;;;;;;;;25.60;48.70;;;;;;4993105;28;19921;-80
2022/01/13 13:01:47;;;;;;;;;;;25.00;48.70;;;;;;4978195;28;19933;-80
2022/01/13 13:04:13;;;;;;;;;;;24.60;50.10;;;;;;4960716;28;20381;-80
2022/01/13 13:06:41;;;;;;;;;;;24.70;49.80;;;;;;4976810;28;19910;-80
2022/01/13 13:09:12;;;;;;;;;;;24.80;48.60;;;;;;4978242;28;19914;-79
2022/01/13 13:11:42;;;;;;;;;;;24.80;49.00;;;;;;4977968;28;19950;-79
2022/01/13 13:14:15;;;;;;;;;;;24.20;49.20;;;;;;4976698;28;19910;-79
2022/01/13 13:16:42;;;;;;;;;;;23.50;50.20;;;;;;4978594;28;20397;-79
2022/01/13 13:19:08;;;;;;;;;;;22.70;51.70;;;;;;4976526;28;19914;-79
2022/01/13 13:21:34;;;;;;;;;;;23.20;50.50;;;;;;4977817;28;19949;-79
2022/01/13 13:23:59;;;;;;;;;;;23.00;51.60;;;;;;4976491;28;20345;-79
2022/01/13 13:26:25;;;;;;;;;;;23.00;51.60;;;;;;4960728;28;19914;-80
2022/01/13 13:28:52;;;;;;;;;;;22.60;52.30;;;;;;4977835;28;19977;-80
2022/01/13 13:31:24;;;;;;;;;;;22.70;52.50;;;;;;4977770;28;19915;-79
2022/01/13 13:34:00;;;;;;;;;;;22.50;52.70;;;;;;4959586;28;19911;-80
2022/01/13 13:36:30;;;;;;;;;;;22.30;52.40;;;;;;4978094;28;19910;-80
2022/01/13 13:39:05;;;;;;;;;;;22.10;53.30;;;;;;4977943;28;19914;-79
2022/01/13 13:41:50;;;;;;;;;;;21.60;54.00;;;;;;4977527;28;19910;-80
2022/01/13 13:44:18;;;;;;;;;;;21.80;55.20;;;;;;4977511;28;19948;-79
2022/01/13 13:46:44;;;;;;;;;;;22.00;54.00;;;;;;4977659;28;19918;-80
2022/01/13 13:49:10;;;;;;;;;;;23.70;53.90;;;;;;4992224;28;20289;-80
2022/01/13 13:51:37;;;;;;;;;;;24.00;51.70;;;;;;4977312;28;19956;-80
2022/01/13 13:54:08;;;;;;;;;;;22.90;52.50;;;;;;4976946;28;19922;-79
2022/01/13 13:56:35;;;;;;;;;;;22.20;53.40;;;;;;4977418;28;20378;-79
2022/01/13 13:59:01;;;;;;;;;;;22.10;55.50;;;;;;4959633;28;19914;-80
2022/01/13 14:01:28;;;;;;;;;;;22.70;55.60;;;;;;4975890;28;19917;-80
2022/01/13 14:03:54;;;;;;;;;;;22.80;53.50;;;;;;4977337;28;19910;-80
2022/01/13 14:06:39;;;;;;;;;;;22.60;55.00;;;;;;4977217;28;19917;-79
2022/01/13 14:09:05;;;;;;;;;;;23.10;54.40;;;;;;4975658;28;19914;-79
2022/01/13 14:11:43;;;;;;;;;;;23.30;53.90;;;;;;4977016;28;19918;-79
2022/01/13 14:14:10;;;;;;;;;;;23.20;54.40;;;;;;4976979;28;19910;-79
2022/01/13 14:16:36;;;;;;;;;;;22.70;54.20;;;;;;4977373;28;19993;-79
2022/01/13 14:19:12;;;;;;;;;;;22.90;55.30;;;;;;4959242;28;20382;-79
2022/01/13 14:21:45;;;;;;;;;;;22.90;55.60;;;;;;4991435;28;20432;-79
2022/01/13 14:24:10;;;;;;;;;;;23.40;53.60;;;;;;4959341;28;19993;-79
2022/01/13 14:26:36;;;;;;;;;;;22.80;54.60;;;;;;4976649;28;19953;-79
2022/01/13 14:29:02;;;;;;;;;;;23.00;54.50;;;;;;4976631;28;20338;-79
2022/01/13 14:31:39;;;;;;;;;;;22.80;54.30;;;;;;4959203;28;20379;-79
2022/01/13 14:34:04;;;;;;;;;;;22.30;55.20;;;;;;4974998;28;20453;-79
2022/01/13 14:36:36;;;;;;;;;;;22.20;55.00;;;;;;4976568;28;19914;-79
2022/01/13 14:39:03;;;;;;;;;;;21.90;55.70;;;;;;4976391;28;19922;-79
2022/01/13 14:41:35;;;;;;;;;;;21.80;55.60;;;;;;4976923;28;19917;-79
2022/01/13 14:44:08;;;;;;;;;;;22.30;55.30;;;;;;4976480;28;19917;-79
2022/01/13 14:46:38;;;;;;;;;;;22.30;54.70;;;;;;4974958;28;20378;-79
2022/01/13 14:49:04;;;;;;;;;;;22.20;55.50;;;;;;4976236;28;19975;-79
2022/01/13 14:51:30;;;;;;;;;;;22.10;56.20;;;;;;4976358;28;19917;-79
2022/01/13 14:53:57;;;;;;;;;;;22.50;55.00;;;;;;4974582;28;19918;-79
2022/01/13 14:56:23;;;;;;;;;;;22.40;55.30;;;;;;4976167;28;19918;-79